sensor_id;sensor_type;location;lat;lon;timestamp;P1;durP1;ratioP1;P2;durP2;ratioP2
80115;SDS011;69423;47.608;19.366;2023-07-22T00:00:09;6.60;;;6.60;;
80115;SDS011;69423;47.608;19.366;2023-07-22T00:00:45;6.73;;;6.73;;
80115;SDS011;69423;47.608;19.366;2023-07-22T00:01:16;7.23;;;7.23;;
80115;SDS011;69423;47.608;19.366;2023-07-22T00:01:47;7.47;;;7.47;;
80115;SDS011;69423;47.608;19.366;2023-07-22T00:02:18;7.40;;;7.40;;
80115;SDS011;69423;47.608;19.366;2023-07-22T00:02:49;7.57;;;7.57;;
80115;SDS011;69423;47.608;19.366;2023-07-22T00:03:20;7.17;;;7.17;;
80115;SDS011;69423;47.608;19.366;2023-07-22T00:03:53;7.27;;;7.27;;
80115;SDS011;69423;47.608;19.366;2023-07-22T00:04:25;7.20;;;7.20;;
80115;SDS011;69423;47.608;19.366;2023-07-22T00:04:56;7.07;;;7.07;;
80115;SDS011;69423;47.608;19.366;2023-07-22T00:05:27;6.90;;;6.90;;
80115;SDS011;69423;47.608;19.366;2023-07-22T00:06:16;6.33;;;6.33;;
80115;SDS011;69423;47.608;19.366;2023-07-22T00:06:47;6.60;;;6.60;;
80115;SDS011;69423;47.608;19.366;2023-07-22T00:07:18;6.33;;;6.33;;
80115;SDS011;69423;47.608;19.366;2023-07-22T00:07:49;6.23;;;6.23;;
80115;SDS011;69423;47.608;19.366;2023-07-22T00:08:21;6.60;;;6.60;;
80115;SDS011;69423;47.608;19.366;2023-07-22T00:08:53;6.67;;;6.67;;
80115;SDS011;69423;47.608;19.366;2023-07-22T00:09:24;7.00;;;7.00;;
80115;SDS011;69423;47.608;19.366;2023-07-22T00:09:55;6.30;;;6.30;;
80115;SDS011;69423;47.608;19.366;2023-07-22T00:10:27;6.80;;;6.80;;
80115;SDS011;69423;47.608;19.366;2023-07-22T00:10:58;6.90;;;6.90;;
80115;SDS011;69423;47.608;19.366;2023-07-22T00:11:29;6.10;;;6.10;;
80115;SDS011;69423;47.608;19.366;2023-07-22T00:12:00;6.27;;;6.27;;
80115;SDS011;69423;47.608;19.366;2023-07-22T00:12:34;6.83;;;6.83;;
80115;SDS011;69423;47.608;19.366;2023-07-22T00:13:05;6.77;;;6.77;;
80115;SDS011;69423;47.608;19.366;2023-07-22T00:13:36;6.73;;;6.73;;
80115;SDS011;69423;47.608;19.366;2023-07-22T00:14:08;6.37;;;6.37;;
80115;SDS011;69423;47.608;19.366;2023-07-22T00:14:40;6.63;;;6.63;;
80115;SDS011;69423;47.608;19.366;2023-07-22T00:15:12;6.87;;;6.87;;
80115;SDS011;69423;47.608;19.366;2023-07-22T00:15:43;6.77;;;6.77;;
80115;SDS011;69423;47.608;19.366;2023-07-22T00:16:14;6.90;;;6.90;;
80115;SDS011;69423;47.608;19.366;2023-07-22T00:16:45;6.97;;;6.97;;
80115;SDS011;69423;47.608;19.366;2023-07-22T00:17:16;6.77;;;6.77;;
80115;SDS011;69423;47.608;19.366;2023-07-22T00:17:47;6.70;;;6.70;;
80115;SDS011;69423;47.608;19.366;2023-07-22T00:18:18;6.77;;;6.77;;
80115;SDS011;69423;47.608;19.366;2023-07-22T00:18:49;6.93;;;6.93;;
80115;SDS011;69423;47.608;19.366;2023-07-22T00:19:20;7.03;;;7.03;;
80115;SDS011;69423;47.608;19.366;2023-07-22T00:19:51;6.40;;;6.40;;
80115;SDS011;69423;47.608;19.366;2023-07-22T00:20:23;6.67;;;6.67;;
80115;SDS011;69423;47.608;19.366;2023-07-22T00:20:54;6.60;;;6.60;;
80115;SDS011;69423;47.608;19.366;2023-07-22T00:21:25;6.57;;;6.57;;
80115;SDS011;69423;47.608;19.366;2023-07-22T00:21:56;6.83;;;6.83;;
80115;SDS011;69423;47.608;19.366;2023-07-22T00:22:27;6.90;;;6.90;;
80115;SDS011;69423;47.608;19.366;2023-07-22T00:22:59;6.67;;;6.67;;
80115;SDS011;69423;47.608;19.366;2023-07-22T00:23:30;7.03;;;7.03;;
80115;SDS011;69423;47.608;19.366;2023-07-22T00:24:02;6.53;;;6.53;;
80115;SDS011;69423;47.608;19.366;2023-07-22T00:24:33;6.93;;;6.93;;
80115;SDS011;69423;47.608;19.366;2023-07-22T00:25:04;6.83;;;6.83;;
80115;SDS011;69423;47.608;19.366;2023-07-22T00:25:36;7.40;;;7.40;;
80115;SDS011;69423;47.608;19.366;2023-07-22T00:26:07;7.43;;;7.43;;
80115;SDS011;69423;47.608;19.366;2023-07-22T00:26:39;7.33;;;7.33;;
80115;SDS011;69423;47.608;19.366;2023-07-22T00:27:12;6.87;;;6.87;;
80115;SDS011;69423;47.608;19.366;2023-07-22T00:27:43;7.30;;;7.30;;
80115;SDS011;69423;47.608;19.366;2023-07-22T00:28:14;7.33;;;7.33;;
80115;SDS011;69423;47.608;19.366;2023-07-22T00:28:45;6.80;;;6.80;;
80115;SDS011;69423;47.608;19.366;2023-07-22T00:29:16;6.53;;;6.53;;
80115;SDS011;69423;47.608;19.366;2023-07-22T00:29:47;6.83;;;6.83;;
80115;SDS011;69423;47.608;19.366;2023-07-22T00:30:18;6.90;;;6.90;;
80115;SDS011;69423;47.608;19.366;2023-07-22T00:30:49;7.13;;;7.13;;
80115;SDS011;69423;47.608;19.366;2023-07-22T00:31:21;7.13;;;7.13;;
80115;SDS011;69423;47.608;19.366;2023-07-22T00:31:52;6.73;;;6.73;;
80115;SDS011;69423;47.608;19.366;2023-07-22T00:32:23;6.90;;;6.90;;
80115;SDS011;69423;47.608;19.366;2023-07-22T00:32:54;7.13;;;7.13;;
80115;SDS011;69423;47.608;19.366;2023-07-22T00:33:26;6.77;;;6.77;;
80115;SDS011;69423;47.608;19.366;2023-07-22T00:33:57;6.47;;;6.47;;
80115;SDS011;69423;47.608;19.366;2023-07-22T00:34:28;6.37;;;6.37;;
80115;SDS011;69423;47.608;19.366;2023-07-22T00:34:59;6.87;;;6.87;;
80115;SDS011;69423;47.608;19.366;2023-07-22T00:35:30;6.97;;;6.97;;
80115;SDS011;69423;47.608;19.366;2023-07-22T00:36:02;6.67;;;6.67;;
80115;SDS011;69423;47.608;19.366;2023-07-22T00:36:33;6.60;;;6.60;;
80115;SDS011;69423;47.608;19.366;2023-07-22T00:37:04;6.33;;;6.33;;
80115;SDS011;69423;47.608;19.366;2023-07-22T00:37:35;6.73;;;6.73;;
80115;SDS011;69423;47.608;19.366;2023-07-22T00:38:07;6.67;;;6.67;;
80115;SDS011;69423;47.608;19.366;2023-07-22T00:38:38;6.40;;;6.40;;
80115;SDS011;69423;47.608;19.366;2023-07-22T00:39:10;6.73;;;6.73;;
80115;SDS011;69423;47.608;19.366;2023-07-22T00:39:44;7.40;;;7.40;;
80115;SDS011;69423;47.608;19.366;2023-07-22T00:40:15;6.77;;;6.77;;
80115;SDS011;69423;47.608;19.366;2023-07-22T00:40:47;6.57;;;6.57;;
80115;SDS011;69423;47.608;19.366;2023-07-22T00:41:18;6.90;;;6.90;;
80115;SDS011;69423;47.608;19.366;2023-07-22T00:41:49;7.10;;;7.10;;
80115;SDS011;69423;47.608;19.366;2023-07-22T00:42:20;6.83;;;6.83;;
80115;SDS011;69423;47.608;19.366;2023-07-22T00:42:51;7.00;;;7.00;;
80115;SDS011;69423;47.608;19.366;2023-07-22T00:43:22;6.90;;;6.90;;
80115;SDS011;69423;47.608;19.366;2023-07-22T00:43:55;6.77;;;6.77;;
80115;SDS011;69423;47.608;19.366;2023-07-22T00:44:27;7.13;;;7.13;;
80115;SDS011;69423;47.608;19.366;2023-07-22T00:44:58;6.93;;;6.93;;
80115;SDS011;69423;47.608;19.366;2023-07-22T00:45:29;7.50;;;7.50;;
80115;SDS011;69423;47.608;19.366;2023-07-22T00:46:00;7.03;;;7.03;;
80115;SDS011;69423;47.608;19.366;2023-07-22T00:46:31;6.53;;;6.53;;
80115;SDS011;69423;47.608;19.366;2023-07-22T00:47:02;7.13;;;7.13;;
80115;SDS011;69423;47.608;19.366;2023-07-22T00:47:34;6.97;;;6.97;;
80115;SDS011;69423;47.608;19.366;2023-07-22T00:48:06;6.40;;;6.40;;
80115;SDS011;69423;47.608;19.366;2023-07-22T00:48:40;6.63;;;6.63;;
80115;SDS011;69423;47.608;19.366;2023-07-22T00:49:12;6.33;;;6.33;;
80115;SDS011;69423;47.608;19.366;2023-07-22T00:49:47;6.67;;;6.67;;
80115;SDS011;69423;47.608;19.366;2023-07-22T00:50:19;6.93;;;6.93;;
80115;SDS011;69423;47.608;19.366;2023-07-22T00:50:52;7.13;;;7.13;;
80115;SDS011;69423;47.608;19.366;2023-07-22T00:51:23;6.90;;;6.90;;
80115;SDS011;69423;47.608;19.366;2023-07-22T00:51:55;6.80;;;6.80;;
80115;SDS011;69423;47.608;19.366;2023-07-22T00:52:30;7.00;;;7.00;;
80115;SDS011;69423;47.608;19.366;2023-07-22T00:53:01;6.93;;;6.93;;
80115;SDS011;69423;47.608;19.366;2023-07-22T00:53:32;6.83;;;6.83;;
80115;SDS011;69423;47.608;19.366;2023-07-22T00:54:03;7.03;;;7.03;;
80115;SDS011;69423;47.608;19.366;2023-07-22T00:54:35;7.13;;;7.13;;
80115;SDS011;69423;47.608;19.366;2023-07-22T00:55:06;6.83;;;6.83;;
80115;SDS011;69423;47.608;19.366;2023-07-22T00:55:38;7.27;;;7.27;;
80115;SDS011;69423;47.608;19.366;2023-07-22T00:56:13;7.23;;;7.23;;
80115;SDS011;69423;47.608;19.366;2023-07-22T00:56:44;7.37;;;7.37;;
80115;SDS011;69423;47.608;19.366;2023-07-22T00:57:18;7.20;;;7.20;;
80115;SDS011;69423;47.608;19.366;2023-07-22T00:57:49;6.90;;;6.90;;
80115;SDS011;69423;47.608;19.366;2023-07-22T00:58:21;7.03;;;7.03;;
80115;SDS011;69423;47.608;19.366;2023-07-22T00:58:52;6.90;;;6.90;;
80115;SDS011;69423;47.608;19.366;2023-07-22T00:59:26;6.63;;;6.63;;
80115;SDS011;69423;47.608;19.366;2023-07-22T00:59:57;7.23;;;7.23;;
80115;SDS011;69423;47.608;19.366;2023-07-22T01:00:29;6.93;;;6.93;;
80115;SDS011;69423;47.608;19.366;2023-07-22T01:01:00;7.13;;;7.13;;
80115;SDS011;69423;47.608;19.366;2023-07-22T01:01:31;7.37;;;7.37;;
80115;SDS011;69423;47.608;19.366;2023-07-22T01:02:02;7.00;;;7.00;;
80115;SDS011;69423;47.608;19.366;2023-07-22T01:02:33;6.83;;;6.83;;
80115;SDS011;69423;47.608;19.366;2023-07-22T01:03:05;6.73;;;6.73;;
80115;SDS011;69423;47.608;19.366;2023-07-22T01:03:38;7.37;;;7.37;;
80115;SDS011;69423;47.608;19.366;2023-07-22T01:04:09;7.07;;;7.07;;
80115;SDS011;69423;47.608;19.366;2023-07-22T01:04:41;6.63;;;6.63;;
80115;SDS011;69423;47.608;19.366;2023-07-22T01:05:12;6.93;;;6.93;;
80115;SDS011;69423;47.608;19.366;2023-07-22T01:05:43;6.90;;;6.90;;
80115;SDS011;69423;47.608;19.366;2023-07-22T01:06:14;7.23;;;7.23;;
80115;SDS011;69423;47.608;19.366;2023-07-22T01:06:48;7.33;;;7.33;;
80115;SDS011;69423;47.608;19.366;2023-07-22T01:07:20;6.87;;;6.87;;
80115;SDS011;69423;47.608;19.366;2023-07-22T01:07:51;6.83;;;6.83;;
80115;SDS011;69423;47.608;19.366;2023-07-22T01:08:23;7.27;;;7.27;;
80115;SDS011;69423;47.608;19.366;2023-07-22T01:08:54;7.10;;;7.10;;
80115;SDS011;69423;47.608;19.366;2023-07-22T01:09:25;7.17;;;7.17;;
80115;SDS011;69423;47.608;19.366;2023-07-22T01:09:56;7.63;;;7.63;;
80115;SDS011;69423;47.608;19.366;2023-07-22T01:10:30;7.10;;;7.10;;
80115;SDS011;69423;47.608;19.366;2023-07-22T01:11:02;7.03;;;7.03;;
80115;SDS011;69423;47.608;19.366;2023-07-22T01:11:34;7.30;;;7.30;;
80115;SDS011;69423;47.608;19.366;2023-07-22T01:12:06;6.50;;;6.50;;
80115;SDS011;69423;47.608;19.366;2023-07-22T01:12:37;7.20;;;7.20;;
80115;SDS011;69423;47.608;19.366;2023-07-22T01:13:08;6.67;;;6.67;;
80115;SDS011;69423;47.608;19.366;2023-07-22T01:13:39;6.47;;;6.47;;
80115;SDS011;69423;47.608;19.366;2023-07-22T01:14:11;6.87;;;6.87;;
80115;SDS011;69423;47.608;19.366;2023-07-22T01:14:42;7.10;;;7.10;;
80115;SDS011;69423;47.608;19.366;2023-07-22T01:15:13;7.40;;;7.40;;
80115;SDS011;69423;47.608;19.366;2023-07-22T01:15:44;7.57;;;7.57;;
80115;SDS011;69423;47.608;19.366;2023-07-22T01:16:16;7.60;;;7.60;;
80115;SDS011;69423;47.608;19.366;2023-07-22T01:16:47;7.63;;;7.63;;
80115;SDS011;69423;47.608;19.366;2023-07-22T01:17:19;6.73;;;6.73;;
80115;SDS011;69423;47.608;19.366;2023-07-22T01:17:50;6.93;;;6.93;;
80115;SDS011;69423;47.608;19.366;2023-07-22T01:18:22;7.23;;;7.23;;
80115;SDS011;69423;47.608;19.366;2023-07-22T01:18:53;7.33;;;7.33;;
80115;SDS011;69423;47.608;19.366;2023-07-22T01:19:25;7.30;;;7.30;;
80115;SDS011;69423;47.608;19.366;2023-07-22T01:19:56;6.83;;;6.83;;
80115;SDS011;69423;47.608;19.366;2023-07-22T01:20:28;6.50;;;6.50;;
80115;SDS011;69423;47.608;19.366;2023-07-22T01:21:01;7.30;;;7.30;;
80115;SDS011;69423;47.608;19.366;2023-07-22T01:21:32;7.60;;;7.60;;
80115;SDS011;69423;47.608;19.366;2023-07-22T01:22:05;7.70;;;7.70;;
80115;SDS011;69423;47.608;19.366;2023-07-22T01:22:38;7.00;;;7.00;;
80115;SDS011;69423;47.608;19.366;2023-07-22T01:23:10;7.30;;;7.30;;
80115;SDS011;69423;47.608;19.366;2023-07-22T01:23:41;7.53;;;7.53;;
80115;SDS011;69423;47.608;19.366;2023-07-22T01:24:13;7.43;;;7.43;;
80115;SDS011;69423;47.608;19.366;2023-07-22T01:24:45;7.67;;;7.67;;
80115;SDS011;69423;47.608;19.366;2023-07-22T01:25:16;7.67;;;7.67;;
80115;SDS011;69423;47.608;19.366;2023-07-22T01:25:47;7.40;;;7.40;;
80115;SDS011;69423;47.608;19.366;2023-07-22T01:26:19;7.53;;;7.53;;
80115;SDS011;69423;47.608;19.366;2023-07-22T01:26:50;7.47;;;7.47;;
80115;SDS011;69423;47.608;19.366;2023-07-22T01:27:21;7.90;;;7.90;;
80115;SDS011;69423;47.608;19.366;2023-07-22T01:27:52;7.50;;;7.50;;
80115;SDS011;69423;47.608;19.366;2023-07-22T01:28:23;7.30;;;7.30;;
80115;SDS011;69423;47.608;19.366;2023-07-22T01:29:04;7.77;;;7.77;;
80115;SDS011;69423;47.608;19.366;2023-07-22T01:29:36;8.10;;;8.10;;
80115;SDS011;69423;47.608;19.366;2023-07-22T01:30:07;8.07;;;8.07;;
80115;SDS011;69423;47.608;19.366;2023-07-22T01:30:40;8.60;;;8.60;;
80115;SDS011;69423;47.608;19.366;2023-07-22T01:31:11;8.50;;;8.50;;
80115;SDS011;69423;47.608;19.366;2023-07-22T01:31:43;7.83;;;7.83;;
80115;SDS011;69423;47.608;19.366;2023-07-22T01:32:18;8.33;;;8.33;;
80115;SDS011;69423;47.608;19.366;2023-07-22T01:32:50;8.23;;;8.23;;
80115;SDS011;69423;47.608;19.366;2023-07-22T01:33:21;8.23;;;8.23;;
80115;SDS011;69423;47.608;19.366;2023-07-22T01:33:52;7.77;;;7.77;;
80115;SDS011;69423;47.608;19.366;2023-07-22T01:34:23;8.07;;;8.07;;
80115;SDS011;69423;47.608;19.366;2023-07-22T01:34:55;7.90;;;7.90;;
80115;SDS011;69423;47.608;19.366;2023-07-22T01:35:26;8.63;;;8.63;;
80115;SDS011;69423;47.608;19.366;2023-07-22T01:35:57;8.20;;;8.20;;
80115;SDS011;69423;47.608;19.366;2023-07-22T01:36:29;7.87;;;7.87;;
80115;SDS011;69423;47.608;19.366;2023-07-22T01:37:00;8.07;;;8.07;;
80115;SDS011;69423;47.608;19.366;2023-07-22T01:37:31;8.90;;;8.90;;
80115;SDS011;69423;47.608;19.366;2023-07-22T01:38:02;8.80;;;8.80;;
80115;SDS011;69423;47.608;19.366;2023-07-22T01:38:34;8.43;;;8.43;;
80115;SDS011;69423;47.608;19.366;2023-07-22T01:39:06;9.47;;;9.47;;
80115;SDS011;69423;47.608;19.366;2023-07-22T01:39:37;9.00;;;9.00;;
80115;SDS011;69423;47.608;19.366;2023-07-22T01:40:08;9.40;;;9.40;;
80115;SDS011;69423;47.608;19.366;2023-07-22T01:40:43;9.47;;;9.47;;
80115;SDS011;69423;47.608;19.366;2023-07-22T01:41:14;8.90;;;8.90;;
80115;SDS011;69423;47.608;19.366;2023-07-22T01:41:45;9.00;;;9.00;;
80115;SDS011;69423;47.608;19.366;2023-07-22T01:42:17;8.77;;;8.77;;
80115;SDS011;69423;47.608;19.366;2023-07-22T01:42:48;8.40;;;8.40;;
80115;SDS011;69423;47.608;19.366;2023-07-22T01:43:19;8.17;;;8.17;;
80115;SDS011;69423;47.608;19.366;2023-07-22T01:43:50;8.87;;;8.87;;
80115;SDS011;69423;47.608;19.366;2023-07-22T01:44:21;8.93;;;8.93;;
80115;SDS011;69423;47.608;19.366;2023-07-22T01:44:52;9.00;;;9.00;;
80115;SDS011;69423;47.608;19.366;2023-07-22T01:45:23;8.53;;;8.53;;
80115;SDS011;69423;47.608;19.366;2023-07-22T01:45:54;8.87;;;8.87;;
80115;SDS011;69423;47.608;19.366;2023-07-22T01:46:25;8.57;;;8.57;;
80115;SDS011;69423;47.608;19.366;2023-07-22T01:46:56;8.63;;;8.63;;
80115;SDS011;69423;47.608;19.366;2023-07-22T01:47:28;8.77;;;8.77;;
80115;SDS011;69423;47.608;19.366;2023-07-22T01:47:59;8.07;;;8.07;;
80115;SDS011;69423;47.608;19.366;2023-07-22T01:48:30;9.27;;;9.27;;
80115;SDS011;69423;47.608;19.366;2023-07-22T01:49:01;8.80;;;8.80;;
80115;SDS011;69423;47.608;19.366;2023-07-22T01:49:34;8.73;;;8.73;;
80115;SDS011;69423;47.608;19.366;2023-07-22T01:50:05;9.23;;;9.23;;
80115;SDS011;69423;47.608;19.366;2023-07-22T01:50:37;8.87;;;8.87;;
80115;SDS011;69423;47.608;19.366;2023-07-22T01:51:08;8.93;;;8.93;;
80115;SDS011;69423;47.608;19.366;2023-07-22T01:51:39;8.97;;;8.97;;
80115;SDS011;69423;47.608;19.366;2023-07-22T01:52:11;8.73;;;8.73;;
80115;SDS011;69423;47.608;19.366;2023-07-22T01:52:42;8.60;;;8.60;;
80115;SDS011;69423;47.608;19.366;2023-07-22T01:53:13;8.83;;;8.83;;
80115;SDS011;69423;47.608;19.366;2023-07-22T01:53:44;9.20;;;9.20;;
80115;SDS011;69423;47.608;19.366;2023-07-22T01:54:15;8.90;;;8.90;;
80115;SDS011;69423;47.608;19.366;2023-07-22T01:54:46;8.63;;;8.63;;
80115;SDS011;69423;47.608;19.366;2023-07-22T01:55:17;8.97;;;8.97;;
80115;SDS011;69423;47.608;19.366;2023-07-22T01:55:49;8.83;;;8.83;;
80115;SDS011;69423;47.608;19.366;2023-07-22T01:56:20;10.60;;;10.60;;
80115;SDS011;69423;47.608;19.366;2023-07-22T01:56:51;9.63;;;9.63;;
80115;SDS011;69423;47.608;19.366;2023-07-22T01:57:22;9.00;;;9.00;;
80115;SDS011;69423;47.608;19.366;2023-07-22T01:57:53;9.03;;;9.03;;
80115;SDS011;69423;47.608;19.366;2023-07-22T01:58:24;10.60;;;10.60;;
80115;SDS011;69423;47.608;19.366;2023-07-22T01:58:55;9.40;;;9.40;;
80115;SDS011;69423;47.608;19.366;2023-07-22T01:59:26;9.47;;;9.47;;
80115;SDS011;69423;47.608;19.366;2023-07-22T01:59:57;8.80;;;8.80;;
80115;SDS011;69423;47.608;19.366;2023-07-22T02:00:29;8.73;;;8.73;;
80115;SDS011;69423;47.608;19.366;2023-07-22T02:01:00;8.73;;;8.73;;
80115;SDS011;69423;47.608;19.366;2023-07-22T02:01:31;9.40;;;9.40;;
80115;SDS011;69423;47.608;19.366;2023-07-22T02:02:03;9.03;;;9.03;;
80115;SDS011;69423;47.608;19.366;2023-07-22T02:02:34;8.70;;;8.70;;
80115;SDS011;69423;47.608;19.366;2023-07-22T02:03:05;8.83;;;8.83;;
80115;SDS011;69423;47.608;19.366;2023-07-22T02:03:36;8.63;;;8.63;;
80115;SDS011;69423;47.608;19.366;2023-07-22T02:04:07;8.37;;;8.37;;
80115;SDS011;69423;47.608;19.366;2023-07-22T02:04:38;8.20;;;8.20;;
80115;SDS011;69423;47.608;19.366;2023-07-22T02:05:10;8.77;;;8.77;;
80115;SDS011;69423;47.608;19.366;2023-07-22T02:05:41;9.40;;;9.40;;
80115;SDS011;69423;47.608;19.366;2023-07-22T02:06:12;9.07;;;9.07;;
80115;SDS011;69423;47.608;19.366;2023-07-22T02:06:43;9.23;;;9.23;;
80115;SDS011;69423;47.608;19.366;2023-07-22T02:07:15;8.97;;;8.97;;
80115;SDS011;69423;47.608;19.366;2023-07-22T02:07:46;8.87;;;8.87;;
80115;SDS011;69423;47.608;19.366;2023-07-22T02:08:17;9.03;;;9.03;;
80115;SDS011;69423;47.608;19.366;2023-07-22T02:08:48;8.93;;;8.93;;
80115;SDS011;69423;47.608;19.366;2023-07-22T02:09:19;8.97;;;8.97;;
80115;SDS011;69423;47.608;19.366;2023-07-22T02:09:50;8.87;;;8.87;;
80115;SDS011;69423;47.608;19.366;2023-07-22T02:10:22;9.50;;;9.50;;
80115;SDS011;69423;47.608;19.366;2023-07-22T02:10:53;9.43;;;9.43;;
80115;SDS011;69423;47.608;19.366;2023-07-22T02:11:24;8.70;;;8.70;;
80115;SDS011;69423;47.608;19.366;2023-07-22T02:11:55;9.33;;;9.33;;
80115;SDS011;69423;47.608;19.366;2023-07-22T02:12:26;9.17;;;9.17;;
80115;SDS011;69423;47.608;19.366;2023-07-22T02:12:57;9.20;;;9.20;;
80115;SDS011;69423;47.608;19.366;2023-07-22T02:13:28;9.30;;;9.30;;
80115;SDS011;69423;47.608;19.366;2023-07-22T02:13:59;8.93;;;8.93;;
80115;SDS011;69423;47.608;19.366;2023-07-22T02:14:30;9.33;;;9.33;;
80115;SDS011;69423;47.608;19.366;2023-07-22T02:15:02;9.40;;;9.40;;
80115;SDS011;69423;47.608;19.366;2023-07-22T02:15:33;9.43;;;9.43;;
80115;SDS011;69423;47.608;19.366;2023-07-22T02:16:05;10.17;;;10.17;;
80115;SDS011;69423;47.608;19.366;2023-07-22T02:16:36;10.23;;;10.23;;
80115;SDS011;69423;47.608;19.366;2023-07-22T02:17:07;9.47;;;9.47;;
80115;SDS011;69423;47.608;19.366;2023-07-22T02:17:39;8.77;;;8.77;;
80115;SDS011;69423;47.608;19.366;2023-07-22T02:18:10;9.60;;;9.60;;
80115;SDS011;69423;47.608;19.366;2023-07-22T02:18:41;10.10;;;10.10;;
80115;SDS011;69423;47.608;19.366;2023-07-22T02:19:12;10.80;;;10.80;;
80115;SDS011;69423;47.608;19.366;2023-07-22T02:19:44;11.77;;;11.77;;
80115;SDS011;69423;47.608;19.366;2023-07-22T02:20:15;11.27;;;11.27;;
80115;SDS011;69423;47.608;19.366;2023-07-22T02:20:46;11.23;;;11.23;;
80115;SDS011;69423;47.608;19.366;2023-07-22T02:21:17;11.07;;;11.07;;
80115;SDS011;69423;47.608;19.366;2023-07-22T02:21:48;11.47;;;11.47;;
80115;SDS011;69423;47.608;19.366;2023-07-22T02:22:19;10.93;;;10.93;;
80115;SDS011;69423;47.608;19.366;2023-07-22T02:22:50;11.63;;;11.63;;
80115;SDS011;69423;47.608;19.366;2023-07-22T02:23:21;10.93;;;10.93;;
80115;SDS011;69423;47.608;19.366;2023-07-22T02:23:53;11.53;;;11.53;;
80115;SDS011;69423;47.608;19.366;2023-07-22T02:24:24;12.40;;;12.40;;
80115;SDS011;69423;47.608;19.366;2023-07-22T02:24:55;12.50;;;12.50;;
80115;SDS011;69423;47.608;19.366;2023-07-22T02:25:26;12.47;;;12.47;;
80115;SDS011;69423;47.608;19.366;2023-07-22T02:25:57;12.30;;;12.30;;
80115;SDS011;69423;47.608;19.366;2023-07-22T02:26:28;12.63;;;12.63;;
80115;SDS011;69423;47.608;19.366;2023-07-22T02:26:59;13.43;;;13.43;;
80115;SDS011;69423;47.608;19.366;2023-07-22T02:27:30;13.87;;;13.87;;
80115;SDS011;69423;47.608;19.366;2023-07-22T02:28:01;13.17;;;13.10;;
80115;SDS011;69423;47.608;19.366;2023-07-22T02:28:32;13.23;;;13.20;;
80115;SDS011;69423;47.608;19.366;2023-07-22T02:29:04;13.27;;;13.27;;
80115;SDS011;69423;47.608;19.366;2023-07-22T02:29:35;12.87;;;12.87;;
80115;SDS011;69423;47.608;19.366;2023-07-22T02:30:07;13.03;;;13.03;;
80115;SDS011;69423;47.608;19.366;2023-07-22T02:30:41;13.73;;;13.73;;
80115;SDS011;69423;47.608;19.366;2023-07-22T02:31:12;13.47;;;13.47;;
80115;SDS011;69423;47.608;19.366;2023-07-22T02:31:43;13.20;;;13.20;;
80115;SDS011;69423;47.608;19.366;2023-07-22T02:32:14;12.80;;;12.80;;
80115;SDS011;69423;47.608;19.366;2023-07-22T02:32:45;13.03;;;13.03;;
80115;SDS011;69423;47.608;19.366;2023-07-22T02:33:16;12.73;;;12.73;;
80115;SDS011;69423;47.608;19.366;2023-07-22T02:33:47;11.90;;;11.87;;
80115;SDS011;69423;47.608;19.366;2023-07-22T02:34:18;12.40;;;12.40;;
80115;SDS011;69423;47.608;19.366;2023-07-22T02:34:50;13.30;;;13.27;;
80115;SDS011;69423;47.608;19.366;2023-07-22T02:35:21;12.97;;;12.93;;
80115;SDS011;69423;47.608;19.366;2023-07-22T02:35:52;12.67;;;12.67;;
80115;SDS011;69423;47.608;19.366;2023-07-22T02:36:23;12.27;;;12.27;;
80115;SDS011;69423;47.608;19.366;2023-07-22T02:36:54;11.93;;;11.93;;
80115;SDS011;69423;47.608;19.366;2023-07-22T02:37:25;12.27;;;12.27;;
80115;SDS011;69423;47.608;19.366;2023-07-22T02:37:56;12.27;;;12.27;;
80115;SDS011;69423;47.608;19.366;2023-07-22T02:38:27;13.23;;;13.23;;
80115;SDS011;69423;47.608;19.366;2023-07-22T02:38:58;12.33;;;12.33;;
80115;SDS011;69423;47.608;19.366;2023-07-22T02:39:29;12.63;;;12.63;;
80115;SDS011;69423;47.608;19.366;2023-07-22T02:40:00;12.37;;;12.37;;
80115;SDS011;69423;47.608;19.366;2023-07-22T02:41:05;12.53;;;12.53;;
80115;SDS011;69423;47.608;19.366;2023-07-22T02:41:38;12.70;;;12.70;;
80115;SDS011;69423;47.608;19.366;2023-07-22T02:42:09;12.43;;;12.33;;
80115;SDS011;69423;47.608;19.366;2023-07-22T02:42:40;12.77;;;12.40;;
80115;SDS011;69423;47.608;19.366;2023-07-22T02:43:11;13.10;;;12.97;;
80115;SDS011;69423;47.608;19.366;2023-07-22T02:43:43;12.70;;;12.70;;
80115;SDS011;69423;47.608;19.366;2023-07-22T02:44:14;13.40;;;13.40;;
80115;SDS011;69423;47.608;19.366;2023-07-22T02:44:45;13.17;;;13.17;;
80115;SDS011;69423;47.608;19.366;2023-07-22T02:45:16;12.53;;;12.53;;
80115;SDS011;69423;47.608;19.366;2023-07-22T02:45:47;13.00;;;13.00;;
80115;SDS011;69423;47.608;19.366;2023-07-22T02:46:18;12.47;;;12.47;;
80115;SDS011;69423;47.608;19.366;2023-07-22T02:46:49;12.80;;;12.80;;
80115;SDS011;69423;47.608;19.366;2023-07-22T02:47:20;12.70;;;12.70;;
80115;SDS011;69423;47.608;19.366;2023-07-22T02:47:51;13.10;;;13.10;;
80115;SDS011;69423;47.608;19.366;2023-07-22T02:48:22;12.23;;;12.23;;
80115;SDS011;69423;47.608;19.366;2023-07-22T02:48:53;11.57;;;11.57;;
80115;SDS011;69423;47.608;19.366;2023-07-22T02:49:25;12.67;;;12.67;;
80115;SDS011;69423;47.608;19.366;2023-07-22T02:49:56;13.13;;;13.13;;
80115;SDS011;69423;47.608;19.366;2023-07-22T02:50:27;13.07;;;13.07;;
80115;SDS011;69423;47.608;19.366;2023-07-22T02:51:05;12.90;;;12.90;;
80115;SDS011;69423;47.608;19.366;2023-07-22T02:51:38;13.37;;;13.33;;
80115;SDS011;69423;47.608;19.366;2023-07-22T02:52:09;13.43;;;13.40;;
80115;SDS011;69423;47.608;19.366;2023-07-22T02:52:40;12.27;;;12.27;;
80115;SDS011;69423;47.608;19.366;2023-07-22T02:53:11;12.00;;;12.00;;
80115;SDS011;69423;47.608;19.366;2023-07-22T02:53:42;12.17;;;12.17;;
80115;SDS011;69423;47.608;19.366;2023-07-22T02:54:15;12.63;;;12.57;;
80115;SDS011;69423;47.608;19.366;2023-07-22T02:55:03;12.30;;;12.23;;
80115;SDS011;69423;47.608;19.366;2023-07-22T02:55:36;13.63;;;13.17;;
80115;SDS011;69423;47.608;19.366;2023-07-22T02:56:07;13.03;;;12.93;;
80115;SDS011;69423;47.608;19.366;2023-07-22T02:56:38;12.57;;;12.57;;
80115;SDS011;69423;47.608;19.366;2023-07-22T02:57:09;12.70;;;12.70;;
80115;SDS011;69423;47.608;19.366;2023-07-22T02:57:40;12.63;;;12.63;;
80115;SDS011;69423;47.608;19.366;2023-07-22T02:58:12;12.93;;;12.93;;
80115;SDS011;69423;47.608;19.366;2023-07-22T02:58:43;12.67;;;12.57;;
80115;SDS011;69423;47.608;19.366;2023-07-22T02:59:14;12.03;;;12.03;;
80115;SDS011;69423;47.608;19.366;2023-07-22T02:59:45;11.93;;;11.93;;
80115;SDS011;69423;47.608;19.366;2023-07-22T03:00:17;11.60;;;11.60;;
80115;SDS011;69423;47.608;19.366;2023-07-22T03:00:55;11.63;;;11.63;;
80115;SDS011;69423;47.608;19.366;2023-07-22T03:01:28;11.97;;;11.97;;
80115;SDS011;69423;47.608;19.366;2023-07-22T03:02:00;11.67;;;11.67;;
80115;SDS011;69423;47.608;19.366;2023-07-22T03:02:31;11.47;;;11.47;;
80115;SDS011;69423;47.608;19.366;2023-07-22T03:03:02;11.17;;;11.17;;
80115;SDS011;69423;47.608;19.366;2023-07-22T03:03:35;11.00;;;11.00;;
80115;SDS011;69423;47.608;19.366;2023-07-22T03:04:07;11.33;;;11.33;;
80115;SDS011;69423;47.608;19.366;2023-07-22T03:04:38;11.27;;;11.27;;
80115;SDS011;69423;47.608;19.366;2023-07-22T03:05:09;11.73;;;11.73;;
80115;SDS011;69423;47.608;19.366;2023-07-22T03:05:40;11.90;;;11.90;;
80115;SDS011;69423;47.608;19.366;2023-07-22T03:06:11;11.27;;;11.27;;
80115;SDS011;69423;47.608;19.366;2023-07-22T03:06:42;11.40;;;11.40;;